Time;durP1;ratioP1;P1;durP2;ratioP2;P2;SDS_P1;SDS_P2;PMS_P1;PMS_P2;Temp;Humidity;BMP_temperature;BMP_pressure;BME280_temperature;BME280_humidity;BME280_pressure;Samples;Min_cycle;Max_cycle;Signal;HPM_P1;HPM_P2
2022/10/27 00:00:25;;;;;;;13.93;6.82;;;12.90;99.90;;;;;;4905172;29;20409;-62
2022/10/27 00:02:51;;;;;;;13.65;7.20;;;12.80;99.90;;;;;;4906851;29;20051;-61
2022/10/27 00:05:16;;;;;;;12.48;7.13;;;13.00;99.90;;;;;;4904106;29;20082;-62
2022/10/27 00:07:42;;;;;;;11.60;7.15;;;12.80;99.90;;;;;;4905970;29;20064;-62
2022/10/27 00:10:08;;;;;;;14.63;7.57;;;13.00;99.90;;;;;;4905752;29;20527;-61
2022/10/27 00:12:34;;;;;;;14.57;8.00;;;13.00;99.90;;;;;;4906580;29;20568;-62
2022/10/27 00:15:00;;;;;;;13.05;8.35;;;12.80;99.90;;;;;;4888216;29;20139;-61
2022/10/27 00:17:27;;;;;;;14.02;7.43;;;13.00;99.90;;;;;;4909769;29;20717;-62
2022/10/27 00:19:53;;;;;;;12.57;8.00;;;12.80;99.90;;;;;;4910510;29;20051;-61
2022/10/27 00:22:19;;;;;;;14.55;8.13;;;12.80;99.90;;;;;;4892343;29;20131;-62
2022/10/27 00:24:44;;;;;;;14.95;7.60;;;13.10;99.90;;;;;;4893498;29;20564;-61
2022/10/27 00:27:10;;;;;;;15.95;7.45;;;12.90;99.90;;;;;;4909301;29;20047;-62
2022/10/27 00:29:36;;;;;;;15.23;8.07;;;13.10;99.90;;;;;;4909357;29;20047;-61
2022/10/27 00:32:01;;;;;;;14.10;7.72;;;13.10;99.90;;;;;;4909749;29;20048;-61
2022/10/27 00:34:27;;;;;;;13.95;8.02;;;12.90;99.90;;;;;;4910622;29;20114;-61
2022/10/27 00:36:52;;;;;;;13.23;7.68;;;13.00;99.90;;;;;;4910274;29;20579;-61
2022/10/27 00:39:18;;;;;;;14.15;7.85;;;12.90;99.90;;;;;;4910009;29;20044;-61
2022/10/27 00:41:45;;;;;;;12.18;7.70;;;12.90;99.90;;;;;;4909728;29;20241;-61
2022/10/27 00:44:29;;;;;;;13.50;7.88;;;13.20;99.90;;;;;;4909537;29;20494;-61
2022/10/27 00:46:56;;;;;;;12.80;8.00;;;13.20;99.90;;;;;;4909469;29;20059;-61
2022/10/27 00:49:27;;;;;;;18.63;7.95;;;13.20;99.90;;;;;;4910554;29;20045;-62
2022/10/27 00:51:57;;;;;;;16.13;8.75;;;13.00;99.90;;;;;;4910197;29;20399;-61
2022/10/27 00:54:27;;;;;;;13.20;7.65;;;13.00;99.90;;;;;;4909321;29;20052;-61
2022/10/27 00:56:54;;;;;;;13.10;8.20;;;13.00;99.90;;;;;;4909641;29;20068;-61
2022/10/27 00:59:21;;;;;;;12.68;8.23;;;13.10;99.90;;;;;;4909115;29;20048;-61
2022/10/27 01:01:49;;;;;;;14.80;8.60;;;13.20;99.90;;;;;;4908535;29;20044;-61
2022/10/27 01:04:22;;;;;;;15.60;8.93;;;12.90;99.90;;;;;;4908684;29;20055;-61
2022/10/27 01:06:47;;;;;;;14.90;8.70;;;12.90;99.90;;;;;;4908919;29;20511;-62
2022/10/27 01:09:13;;;;;;;16.00;8.13;;;12.80;99.90;;;;;;4909039;29;20059;-62
2022/10/27 01:11:39;;;;;;;14.10;8.70;;;13.00;99.90;;;;;;4909239;29;20044;-62
2022/10/27 01:14:05;;;;;;;15.93;9.10;;;13.00;99.90;;;;;;4908541;29;20421;-61
2022/10/27 01:16:35;;;;;;;14.13;8.30;;;12.70;99.90;;;;;;4908870;29;20086;-61
2022/10/27 01:19:04;;;;;;;15.98;8.63;;;12.70;99.90;;;;;;4908240;29;20739;-61
2022/10/27 01:22:11;;;;;;;20.75;9.38;;;12.90;99.90;;;;;;4909573;29;20047;-62
2022/10/27 01:24:52;;;;;;;13.75;9.35;;;12.60;99.90;;;;;;4886619;29;20605;-61
2022/10/27 01:27:31;;;;;;;13.40;9.25;;;12.60;99.90;;;;;;4908618;29;20480;-62
2022/10/27 01:30:08;;;;;;;16.05;9.43;;;12.60;99.90;;;;;;4908777;29;20056;-61
2022/10/27 01:32:37;;;;;;;17.20;9.68;;;12.70;99.90;;;;;;4908922;29;20122;-61
2022/10/27 01:35:26;;;;;;;15.82;9.75;;;12.60;99.90;;;;;;4908812;29;20143;-60
2022/10/27 01:38:07;;;;;;;16.25;10.38;;;12.50;99.90;;;;;;4908728;29;20051;-62
2022/10/27 01:40:59;;;;;;;16.88;10.57;;;12.70;99.90;;;;;;4909369;29;20055;-61
2022/10/27 01:43:26;;;;;;;16.38;10.00;;;12.60;99.90;;;;;;4908393;29;20044;-62
2022/10/27 01:45:54;;;;;;;18.13;10.27;;;12.60;99.90;;;;;;4908164;29;20036;-61
2022/10/27 01:48:20;;;;;;;15.05;10.73;;;12.50;99.90;;;;;;4908421;29;20115;-61
2022/10/27 01:50:46;;;;;;;14.00;10.13;;;12.70;99.90;;;;;;4891553;29;20488;-60
2022/10/27 01:53:12;;;;;;;14.10;10.35;;;12.60;99.90;;;;;;4907710;29;20127;-61
2022/10/27 01:56:02;;;;;;;14.32;9.63;;;12.50;99.90;;;;;;4892024;29;20131;-61
2022/10/27 01:58:31;;;;;;;16.65;10.75;;;12.40;99.90;;;;;;4907240;29;20056;-60
2022/10/27 02:01:26;;;;;;;15.27;10.85;;;12.50;99.90;;;;;;4908832;29;20032;-61
2022/10/27 02:03:55;;;;;;;14.40;11.07;;;12.50;99.90;;;;;;4900016;29;20079;-61
2022/10/27 02:06:30;;;;;;;17.50;10.45;;;12.80;99.90;;;;;;4890447;29;20102;-61
2022/10/27 02:09:08;;;;;;;16.95;10.63;;;12.50;99.90;;;;;;4908469;29;20090;-62
2022/10/27 02:11:36;;;;;;;14.65;10.13;;;12.80;99.90;;;;;;4908798;29;20076;-61
2022/10/27 02:14:03;;;;;;;18.42;10.63;;;12.70;99.90;;;;;;4907401;29;20048;-63
2022/10/27 02:16:31;;;;;;;21.02;11.15;;;12.60;99.90;;;;;;4907401;29;20060;-61
2022/10/27 02:19:03;;;;;;;16.52;11.35;;;12.80;99.90;;;;;;4908944;29;20048;-61
2022/10/27 02:21:32;;;;;;;16.65;11.52;;;12.70;99.90;;;;;;4907826;29;20044;-60
2022/10/27 02:23:58;;;;;;;17.40;11.55;;;12.80;99.90;;;;;;4890682;29;20170;-61
2022/10/27 02:26:27;;;;;;;20.45;12.02;;;13.10;99.90;;;;;;4907982;29;20044;-61
2022/10/27 02:28:55;;;;;;;21.55;11.35;;;13.00;99.90;;;;;;4906888;29;20063;-60
2022/10/27 02:31:25;;;;;;;17.05;11.73;;;13.00;99.90;;;;;;4907195;29;20246;-62
2022/10/27 02:33:52;;;;;;;17.52;11.55;;;12.90;99.90;;;;;;4908040;29;20535;-61
2022/10/27 02:36:18;;;;;;;19.55;11.73;;;12.90;99.90;;;;;;4908077;29;20056;-61
2022/10/27 02:38:43;;;;;;;18.02;11.63;;;12.80;99.90;;;;;;4907120;29;20044;-62
2022/10/27 02:41:09;;;;;;;19.67;11.48;;;13.00;99.90;;;;;;4906877;29;20389;-61
2022/10/27 02:43:35;;;;;;;16.55;10.82;;;12.90;99.90;;;;;;4906730;29;20052;-61
2022/10/27 02:46:00;;;;;;;17.75;10.70;;;13.00;99.90;;;;;;4908163;29;20127;-61
2022/10/27 02:48:26;;;;;;;17.95;11.38;;;12.80;99.90;;;;;;4907066;29;20082;-62
2022/10/27 02:50:51;;;;;;;17.90;12.23;;;12.90;99.90;;;;;;4907047;29;20052;-61
2022/10/27 02:53:17;;;;;;;19.25;11.10;;;12.80;99.90;;;;;;4907486;29;20199;-61
2022/10/27 02:55:43;;;;;;;14.85;11.60;;;13.10;99.90;;;;;;4907528;29;20047;-61
2022/10/27 02:58:08;;;;;;;15.27;10.73;;;12.80;99.90;;;;;;4906195;29;20183;-61
2022/10/27 03:00:34;;;;;;;21.23;12.25;;;12.80;99.90;;;;;;4907789;29;20127;-61
2022/10/27 03:03:01;;;;;;;19.20;11.10;;;12.70;99.90;;;;;;4907723;29;20051;-61
2022/10/27 03:05:27;;;;;;;18.55;11.48;;;12.70;99.90;;;;;;4906755;29;20052;-62
2022/10/27 03:07:53;;;;;;;17.50;11.68;;;12.80;99.90;;;;;;4906893;29;20052;-60
2022/10/27 03:10:18;;;;;;;18.83;11.40;;;13.00;99.90;;;;;;4906951;29;21046;-61
2022/10/27 03:12:47;;;;;;;21.88;11.98;;;12.90;99.90;;;;;;4889660;29;20056;-61
2022/10/27 03:15:13;;;;;;;16.63;11.40;;;12.80;99.90;;;;;;4905886;29;20118;-60
2022/10/27 03:17:44;;;;;;;20.25;12.63;;;13.00;99.90;;;;;;4907778;29;20380;-61
2022/10/27 03:20:11;;;;;;;17.23;11.38;;;13.00;99.90;;;;;;4907727;29;20167;-60
2022/10/27 03:22:38;;;;;;;16.38;11.65;;;12.80;99.90;;;;;;4906231;29;20268;-61
2022/10/27 03:25:04;;;;;;;18.35;11.43;;;12.80;99.90;;;;;;4907319;29;20047;-61
2022/10/27 03:27:30;;;;;;;18.65;12.25;;;12.80;99.90;;;;;;4906832;29;20489;-61
2022/10/27 03:29:55;;;;;;;17.33;11.77;;;12.80;99.90;;;;;;4906987;29;20119;-61
2022/10/27 03:32:21;;;;;;;18.02;11.65;;;12.70;99.90;;;;;;4906530;29;20542;-61
2022/10/27 03:34:47;;;;;;;15.25;10.63;;;12.70;99.90;;;;;;4906511;29;20040;-63
2022/10/27 03:37:12;;;;;;;17.95;11.52;;;12.70;99.90;;;;;;4906912;29;20044;-60
2022/10/27 03:39:38;;;;;;;15.63;11.07;;;13.00;99.90;;;;;;4906192;29;20047;-61
2022/10/27 03:42:03;;;;;;;16.92;11.38;;;12.80;99.90;;;;;;4906577;29;20056;-61
2022/10/27 03:44:29;;;;;;;16.73;11.43;;;13.00;99.90;;;;;;4905978;29;20047;-61
2022/10/27 03:46:54;;;;;;;19.08;11.73;;;12.80;99.90;;;;;;4906552;29;20040;-61
2022/10/27 03:49:20;;;;;;;16.40;10.85;;;12.80;99.90;;;;;;4906060;29;20056;-61
2022/10/27 03:51:46;;;;;;;20.88;11.80;;;12.90;99.90;;;;;;4889928;29;20063;-61
2022/10/27 03:54:11;;;;;;;19.98;11.77;;;12.70;99.90;;;;;;4906276;29;20109;-57
2022/10/27 03:56:37;;;;;;;17.10;12.10;;;12.70;99.90;;;;;;4913135;29;20044;-62
2022/10/27 03:59:03;;;;;;;18.48;12.05;;;12.70;99.90;;;;;;4904525;29;20491;-62
2022/10/27 04:01:32;;;;;;;19.08;11.38;;;12.70;99.90;;;;;;4906040;29;20123;-61
2022/10/27 04:03:58;;;;;;;17.58;11.82;;;12.80;99.90;;;;;;4906804;29;20044;-61
2022/10/27 04:06:23;;;;;;;18.60;12.00;;;12.60;99.90;;;;;;4904568;29;20655;-61
2022/10/27 04:08:49;;;;;;;18.85;12.18;;;12.80;99.90;;;;;;4906355;29;20160;-61
2022/10/27 04:11:15;;;;;;;17.70;12.70;;;12.60;99.90;;;;;;4906044;29;20102;-61
2022/10/27 04:13:40;;;;;;;18.27;13.52;;;12.60;99.90;;;;;;4905634;29;20135;-61
2022/10/27 04:16:06;;;;;;;17.50;13.20;;;12.90;99.90;;;;;;4905793;29;20054;-61
2022/10/27 04:18:32;;;;;;;21.92;13.65;;;12.70;99.90;;;;;;4905661;29;20372;-61
2022/10/27 04:21:04;;;;;;;24.13;14.75;;;12.60;99.90;;;;;;4905141;29;20043;-61
2022/10/27 04:23:29;;;;;;;22.02;14.50;;;12.60;99.90;;;;;;4904070;29;20752;-61
2022/10/27 04:25:55;;;;;;;19.58;13.63;;;12.80;99.90;;;;;;4905109;29;20048;-61
2022/10/27 04:28:21;;;;;;;20.30;14.65;;;12.70;99.90;;;;;;4904044;29;20077;-61
2022/10/27 04:30:47;;;;;;;26.42;14.65;;;12.60;99.90;;;;;;4904797;29;20712;-61
2022/10/27 04:33:13;;;;;;;22.10;15.43;;;12.70;99.90;;;;;;4904632;29;20103;-61
2022/10/27 04:35:39;;;;;;;18.40;13.90;;;12.60;99.90;;;;;;4906221;29;20539;-61
2022/10/27 04:38:04;;;;;;;21.75;14.10;;;12.50;99.90;;;;;;4906050;29;20048;-61
2022/10/27 04:40:30;;;;;;;20.42;14.68;;;12.80;99.90;;;;;;4905874;29;20056;-61
2022/10/27 04:42:55;;;;;;;26.75;14.48;;;12.60;99.90;;;;;;4906201;29;20075;-61
2022/10/27 04:45:21;;;;;;;23.30;15.18;;;12.70;99.90;;;;;;4906578;29;20059;-61
2022/10/27 04:47:47;;;;;;;23.02;14.88;;;12.40;99.90;;;;;;4906480;29;20044;-61
2022/10/27 04:50:14;;;;;;;23.02;15.80;;;12.60;99.90;;;;;;4889050;29;20103;-61
2022/10/27 04:52:40;;;;;;;22.58;15.10;;;12.50;99.90;;;;;;4906583;29;20107;-61
2022/10/27 04:55:07;;;;;;;24.98;15.07;;;12.60;99.90;;;;;;4906884;29;20044;-61
2022/10/27 04:57:33;;;;;;;19.65;15.65;;;12.50;99.90;;;;;;4905258;29;20146;-61
2022/10/27 04:59:59;;;;;;;20.25;15.00;;;12.60;99.90;;;;;;4906267;29;20036;-61
2022/10/27 05:02:24;;;;;;;20.20;15.50;;;12.50;99.90;;;;;;4891362;29;20091;-61
2022/10/27 05:04:50;;;;;;;22.13;15.48;;;12.60;99.90;;;;;;4909449;29;20472;-62
2022/10/27 05:07:16;;;;;;;20.75;15.18;;;12.60;99.90;;;;;;4909217;29;20452;-61
2022/10/27 05:09:41;;;;;;;22.25;14.65;;;12.50;99.90;;;;;;4909753;29;20514;-62
2022/10/27 05:12:07;;;;;;;19.80;14.52;;;12.50;99.90;;;;;;4909414;29;20525;-61
2022/10/27 05:14:33;;;;;;;19.30;14.57;;;12.60;99.90;;;;;;4908154;29;20132;-62
2022/10/27 05:16:58;;;;;;;21.70;15.18;;;12.40;99.90;;;;;;4909091;29;20143;-61
2022/10/27 05:19:24;;;;;;;20.60;14.80;;;12.60;99.90;;;;;;4909730;29;20080;-61
2022/10/27 05:21:50;;;;;;;19.23;14.05;;;12.60;99.90;;;;;;4909676;29;20044;-61
2022/10/27 05:24:15;;;;;;;20.02;14.38;;;12.50;99.90;;;;;;4908902;29;20051;-61
2022/10/27 05:26:41;;;;;;;19.10;14.77;;;12.60;99.90;;;;;;4909570;29;20074;-61
2022/10/27 05:29:06;;;;;;;21.60;14.43;;;12.50;99.90;;;;;;4907998;29;20483;-61
2022/10/27 05:31:32;;;;;;;22.63;14.68;;;12.50;99.90;;;;;;4908580;29;20060;-62
2022/10/27 05:33:58;;;;;;;21.40;14.55;;;12.60;99.90;;;;;;4908280;29;20040;-62
2022/10/27 05:36:24;;;;;;;20.23;14.35;;;12.50;99.90;;;;;;4908797;29;20047;-61
2022/10/27 05:38:49;;;;;;;19.90;14.00;;;12.50;99.90;;;;;;4908692;29;20558;-61
2022/10/27 05:41:15;;;;;;;19.08;13.90;;;12.40;99.90;;;;;;4908226;29;20082;-61
2022/10/27 05:43:41;;;;;;;21.42;14.20;;;12.50;99.90;;;;;;4908653;29;20488;-61
2022/10/27 05:46:07;;;;;;;19.58;13.80;;;12.50;99.90;;;;;;4907941;29;20051;-61
2022/10/27 05:48:33;;;;;;;19.95;14.05;;;12.50;99.90;;;;;;4908068;29;20043;-61
2022/10/27 05:50:59;;;;;;;25.67;15.32;;;12.60;99.90;;;;;;4890091;29;20052;-62
2022/10/27 05:53:24;;;;;;;17.27;13.68;;;12.50;99.90;;;;;;4908329;29;20504;-61
2022/10/27 05:55:53;;;;;;;25.67;14.50;;;12.60;99.90;;;;;;4908901;29;20407;-61
2022/10/27 05:58:19;;;;;;;21.98;14.23;;;12.50;99.90;;;;;;4907075;29;20091;-61
2022/10/27 06:00:45;;;;;;;20.48;15.20;;;12.40;99.90;;;;;;4908000;29;20075;-62
2022/10/27 06:03:24;;;;;;;21.40;13.75;;;12.60;99.90;;;;;;4908333;29;20559;-61
2022/10/27 06:05:51;;;;;;;19.55;13.65;;;12.50;99.90;;;;;;4906861;29;20479;-62
2022/10/27 06:08:17;;;;;;;19.40;14.80;;;12.60;99.90;;;;;;4907729;29;20416;-61
2022/10/27 06:10:43;;;;;;;22.27;15.10;;;12.70;99.90;;;;;;4916035;29;20040;-61
2022/10/27 06:13:11;;;;;;;16.50;13.80;;;12.60;99.90;;;;;;4925674;29;20048;-61
2022/10/27 06:15:37;;;;;;;19.42;14.82;;;12.60;99.90;;;;;;4909861;29;20087;-61
2022/10/27 06:18:03;;;;;;;17.65;13.20;;;12.50;99.90;;;;;;4910477;29;20055;-62
2022/10/27 06:20:29;;;;;;;17.23;13.77;;;12.70;99.90;;;;;;4927103;29;20043;-61
2022/10/27 06:22:54;;;;;;;18.58;13.75;;;12.50;99.90;;;;;;4926733;29;20146;-61
2022/10/27 06:25:20;;;;;;;18.70;13.70;;;12.60;99.90;;;;;;4927477;29;20055;-60
2022/10/27 06:27:46;;;;;;;20.10;12.77;;;12.60;99.90;;;;;;4926501;29;20059;-61
2022/10/27 06:30:11;;;;;;;20.90;13.10;;;12.90;99.90;;;;;;4927254;29;20096;-62
2022/10/27 06:32:38;;;;;;;18.08;13.00;;;12.90;99.90;;;;;;4926356;29;20048;-61
2022/10/27 06:35:04;;;;;;;18.83;13.85;;;12.60;99.90;;;;;;4910301;29;20051;-60
2022/10/27 06:37:30;;;;;;;20.35;13.65;;;12.70;99.90;;;;;;4927010;29;20391;-61
2022/10/27 06:39:56;;;;;;;23.08;13.32;;;12.70;99.90;;;;;;4926086;29;20044;-61
2022/10/27 06:42:22;;;;;;;21.95;13.68;;;12.80;99.90;;;;;;4909038;29;20575;-61
2022/10/27 06:44:48;;;;;;;21.35;13.43;;;12.80;99.90;;;;;;4927232;29;20043;-62
2022/10/27 06:47:13;;;;;;;16.88;12.77;;;12.90;99.90;;;;;;4927267;29;20575;-62
2022/10/27 06:49:39;;;;;;;16.90;12.55;;;13.00;99.90;;;;;;4926372;29;20134;-62
2022/10/27 06:52:05;;;;;;;20.70;13.48;;;12.90;99.90;;;;;;4926924;29;20547;-62
2022/10/27 06:54:31;;;;;;;18.00;12.70;;;12.90;99.90;;;;;;4926733;29;20071;-61
2022/10/27 06:56:56;;;;;;;18.27;13.00;;;13.10;99.90;;;;;;4908338;29;20060;-62
2022/10/27 06:59:22;;;;;;;19.48;12.73;;;13.10;99.90;;;;;;4909128;29;20051;-61
2022/10/27 07:01:48;;;;;;;19.00;11.93;;;13.10;99.90;;;;;;4909803;29;20329;-61
2022/10/27 07:04:13;;;;;;;22.95;12.45;;;13.10;99.90;;;;;;4925455;29;20074;-62
2022/10/27 07:06:39;;;;;;;16.77;11.75;;;13.10;99.90;;;;;;4906885;29;20087;-61
2022/10/27 07:09:05;;;;;;;16.80;11.75;;;13.10;99.90;;;;;;4907390;29;20074;-61
2022/10/27 07:11:30;;;;;;;21.92;12.73;;;13.10;99.90;;;;;;4907809;29;20089;-62
2022/10/27 07:13:56;;;;;;;19.17;12.48;;;13.40;99.90;;;;;;4890436;29;20051;-61
2022/10/27 07:16:22;;;;;;;18.92;12.27;;;13.30;99.90;;;;;;4906466;29;20215;-61
2022/10/27 07:18:48;;;;;;;18.48;12.05;;;13.40;99.90;;;;;;4907570;29;20116;-61
2022/10/27 07:21:14;;;;;;;17.05;12.77;;;13.60;99.90;;;;;;4907532;29;20075;-61
2022/10/27 07:23:40;;;;;;;21.35;12.60;;;13.40;99.90;;;;;;4906676;29;20059;-62
2022/10/27 07:26:05;;;;;;;19.13;12.52;;;13.60;99.90;;;;;;4907726;29;20048;-62
2022/10/27 07:28:31;;;;;;;19.27;12.68;;;13.50;99.90;;;;;;4889771;29;20152;-61
2022/10/27 07:30:57;;;;;;;18.67;12.63;;;13.80;99.90;;;;;;4889897;29;20052;-62
2022/10/27 07:33:22;;;;;;;20.67;14.65;;;13.60;99.90;;;;;;4906750;29;20040;-60
2022/10/27 07:35:49;;;;;;;18.58;15.02;;;13.70;99.90;;;;;;4907532;29;20106;-61
2022/10/27 07:38:16;;;;;;;28.30;19.45;;;13.90;99.90;;;;;;4890523;29;20373;-61
2022/10/27 07:40:41;;;;;;;27.52;20.98;;;13.80;99.90;;;;;;4906626;29;20036;-62
2022/10/27 07:43:09;;;;;;;26.67;21.00;;;13.80;99.90;;;;;;4889705;29;20392;-62
2022/10/27 07:45:36;;;;;;;24.33;17.63;;;13.80;99.90;;;;;;4906858;29;20047;-62
2022/10/27 07:48:02;;;;;;;18.90;14.73;;;13.90;99.90;;;;;;4906228;29;20048;-62
2022/10/27 07:50:29;;;;;;;16.98;12.95;;;14.00;99.90;;;;;;4906699;29;20051;-62
2022/10/27 07:52:55;;;;;;;22.83;12.40;;;14.00;99.90;;;;;;4890184;29;20424;-61
2022/10/27 07:55:23;;;;;;;19.77;10.88;;;13.90;99.90;;;;;;4906977;29;20044;-63
2022/10/27 07:58:04;;;;;;;16.95;11.48;;;14.10;99.90;;;;;;4904411;29;20115;-61
2022/10/27 08:00:31;;;;;;;17.80;10.95;;;14.20;99.90;;;;;;4905349;29;20040;-60
2022/10/27 08:03:00;;;;;;;15.23;10.05;;;14.10;99.90;;;;;;4905491;29;20577;-60
2022/10/27 08:05:27;;;;;;;15.50;10.07;;;14.10;99.90;;;;;;4906535;29;20089;-61
2022/10/27 08:07:56;;;;;;;12.38;9.88;;;14.00;99.90;;;;;;4906568;29;20064;-60
2022/10/27 08:10:22;;;;;;;15.98;9.88;;;14.00;99.90;;;;;;4906362;29;20036;-63
2022/10/27 08:12:48;;;;;;;15.75;10.60;;;14.00;99.90;;;;;;4905604;29;20056;-61
2022/10/27 08:15:13;;;;;;;15.15;10.15;;;14.20;99.90;;;;;;4906469;29;20743;-60
2022/10/27 08:17:39;;;;;;;12.93;10.25;;;14.10;99.90;;;;;;4906566;29;20060;-61
2022/10/27 08:20:07;;;;;;;15.82;10.13;;;14.20;99.90;;;;;;4906554;29;20054;-61
2022/10/27 08:22:33;;;;;;;19.42;10.90;;;14.50;99.90;;;;;;4906640;29;20047;-60
2022/10/27 08:24:58;;;;;;;15.90;10.15;;;14.50;99.90;;;;;;4906341;29;20055;-60
2022/10/27 08:27:24;;;;;;;20.45;10.73;;;14.40;99.90;;;;;;4905556;29;20040;-61
2022/10/27 08:29:50;;;;;;;13.93;10.27;;;14.60;99.90;;;;;;4905959;29;20112;-61
2022/10/27 08:32:15;;;;;;;23.38;10.27;;;14.60;99.90;;;;;;4906249;29;20051;-61
2022/10/27 08:34:41;;;;;;;16.05;10.90;;;14.80;99.90;;;;;;4902114;29;20044;-61
2022/10/27 08:37:07;;;;;;;15.48;10.02;;;14.60;99.90;;;;;;4906966;29;20127;-61
2022/10/27 08:39:32;;;;;;;15.82;9.75;;;14.60;99.90;;;;;;4909692;29;20508;-60
2022/10/27 08:42:24;;;;;;;14.15;9.32;;;14.70;99.90;;;;;;4909203;29;20094;-61
2022/10/27 08:44:59;;;;;;;16.10;10.10;;;14.70;99.90;;;;;;4909458;29;20048;-61
2022/10/27 08:47:25;;;;;;;12.82;9.45;;;14.70;99.90;;;;;;4910338;29;20111;-62
2022/10/27 08:50:03;;;;;;;15.98;10.18;;;14.60;99.90;;;;;;4910687;29;20394;-61
2022/10/27 08:52:43;;;;;;;13.35;9.15;;;14.90;99.90;;;;;;4910550;29;20052;-61
2022/10/27 08:55:12;;;;;;;18.70;10.38;;;14.90;99.90;;;;;;4892888;29;20059;-61
2022/10/27 08:57:41;;;;;;;15.95;9.65;;;14.70;99.90;;;;;;4908510;29;20056;-61
2022/10/27 09:00:12;;;;;;;15.55;9.95;;;14.70;99.90;;;;;;4909716;29;20099;-61
2022/10/27 09:03:26;;;;;;;13.25;10.10;;;14.80;99.90;;;;;;4910062;29;20044;-61
2022/10/27 09:06:13;;;;;;;14.63;10.30;;;14.90;99.90;;;;;;4891634;29;20063;-61
2022/10/27 09:09:36;;;;;;;14.25;9.65;;;15.40;99.90;;;;;;4909807;29;20119;-61
2022/10/27 09:12:15;;;;;;;12.63;8.68;;;15.50;99.90;;;;;;4868456;29;20421;-61
2022/10/27 09:15:00;;;;;;;13.35;8.25;;;16.20;99.90;;;;;;4853188;29;20060;-62
2022/10/27 09:17:37;;;;;;;12.40;7.97;;;16.80;99.90;;;;;;4897140;29;20091;-63
2022/10/27 09:20:16;;;;;;;15.25;8.27;;;17.30;99.90;;;;;;4909007;29;20084;-62
2022/10/27 09:22:42;;;;;;;14.68;7.97;;;17.90;99.90;;;;;;4909799;29;20071;-63
2022/10/27 09:25:19;;;;;;;14.07;7.72;;;17.70;99.90;;;;;;4909509;29;20084;-63
2022/10/27 09:27:51;;;;;;;13.30;8.30;;;17.90;99.90;;;;;;4908930;29;20044;-62
2022/10/27 09:30:17;;;;;;;11.68;7.88;;;18.00;99.90;;;;;;4909746;29;20051;-62
2022/10/27 09:32:47;;;;;;;12.15;6.90;;;18.30;99.90;;;;;;4891481;29;20052;-62
2022/10/27 09:35:29;;;;;;;11.93;6.30;;;18.20;99.90;;;;;;4908275;29;20056;-63
2022/10/27 09:37:58;;;;;;;13.38;6.30;;;18.30;99.90;;;;;;4908922;29;20405;-64
2022/10/27 09:40:32;;;;;;;10.45;6.13;;;18.20;99.90;;;;;;4909271;29;20050;-62
2022/10/27 09:42:59;;;;;;;8.52;5.70;;;18.20;99.90;;;;;;4908487;29;20044;-63
2022/10/27 09:45:27;;;;;;;10.95;5.93;;;18.00;99.90;;;;;;4907788;29;20044;-63
2022/10/27 09:47:57;;;;;;;6.95;3.45;;;17.80;99.90;;;;;;4908924;29;20051;-62
2022/10/27 09:50:35;;;;;;;7.82;5.20;;;17.80;99.90;;;;;;4909388;29;20048;-63
2022/10/27 09:53:02;;;;;;;9.90;5.22;;;18.00;99.90;;;;;;4908618;29;20056;-58
2022/10/27 09:55:50;;;;;;;8.80;4.75;;;18.00;99.90;;;;;;4909492;29;20110;-62
2022/10/27 09:58:17;;;;;;;8.88;4.72;;;18.10;99.90;;;;;;4907751;29;20048;-59
2022/10/27 10:00:43;;;;;;;6.82;4.60;;;18.20;99.90;;;;;;4909033;29;20086;-63
2022/10/27 10:03:20;;;;;;;10.27;4.95;;;18.10;99.90;;;;;;4891601;29;20167;-63
2022/10/27 10:05:56;;;;;;;7.50;3.60;;;18.20;99.90;;;;;;4908169;29;20080;-63
2022/10/27 10:08:28;;;;;;;9.20;4.10;;;18.20;99.90;;;;;;4908375;29;20048;-65
2022/10/27 10:11:01;;;;;;;6.70;3.80;;;18.40;99.90;;;;;;4908866;29;20070;-63
2022/10/27 10:13:31;;;;;;;7.32;4.18;;;18.20;99.90;;;;;;4908209;29;20044;-65
2022/10/27 10:16:15;;;;;;;8.57;4.38;;;18.10;99.90;;;;;;4908456;29;20138;-61
2022/10/27 10:19:12;;;;;;;6.25;3.35;;;18.10;99.90;;;;;;4907572;29;20160;-60
2022/10/27 10:21:56;;;;;;;5.20;3.30;;;18.00;99.90;;;;;;4908269;29;20055;-61
2022/10/27 10:24:33;;;;;;;8.35;2.97;;;17.90;99.90;;;;;;4908429;29;20056;-60
2022/10/27 10:27:02;;;;;;;5.50;2.90;;;17.90;99.90;;;;;;4907975;29;20123;-59
2022/10/27 10:29:37;;;;;;;4.03;1.92;;;18.00;99.90;;;;;;4908929;29;20048;-59
2022/10/27 10:32:09;;;;;;;4.82;2.25;;;18.00;99.90;;;;;;4907260;29;20048;-60
2022/10/27 10:34:35;;;;;;;6.82;2.85;;;18.00;99.90;;;;;;4907420;29;20099;-59
2022/10/27 10:37:02;;;;;;;4.88;2.58;;;18.00;99.90;;;;;;4907860;29;20429;-62
2022/10/27 10:39:31;;;;;;;4.22;2.17;;;18.10;99.90;;;;;;4908470;29;20051;-62
2022/10/27 10:42:06;;;;;;;6.07;2.30;;;18.10;99.90;;;;;;4905581;29;20235;-62
2022/10/27 10:44:32;;;;;;;8.82;2.38;;;18.10;99.90;;;;;;4907870;29;20040;-63
2022/10/27 10:46:58;;;;;;;10.20;2.33;;;18.20;99.90;;;;;;4908054;29;20558;-62
2022/10/27 10:49:34;;;;;;;6.57;1.98;;;18.20;99.90;;;;;;4907128;29;20107;-63
2022/10/27 10:52:04;;;;;;;4.88;1.70;;;18.30;99.90;;;;;;4908357;29;20102;-62
2022/10/27 10:54:34;;;;;;;4.68;2.15;;;18.30;99.90;;;;;;4908281;29;20044;-63
2022/10/27 10:57:01;;;;;;;5.55;1.80;;;18.20;99.90;;;;;;4889626;29;20059;-63
2022/10/27 10:59:33;;;;;;;4.22;1.95;;;18.20;99.90;;;;;;4908269;29;20048;-63
2022/10/27 11:02:29;;;;;;;7.55;1.90;;;18.20;99.90;;;;;;4905453;29;20475;-63
2022/10/27 11:04:58;;;;;;;5.95;1.75;;;18.20;99.90;;;;;;4896307;29;20090;-64
2022/10/27 11:07:30;;;;;;;6.70;2.05;;;18.40;99.90;;;;;;4907518;29;20055;-63
2022/10/27 11:10:24;;;;;;;4.65;2.10;;;18.40;99.90;;;;;;4906832;29;20048;-64
2022/10/27 11:13:10;;;;;;;2.78;1.50;;;18.30;99.90;;;;;;4889796;29;20056;-64
2022/10/27 11:15:43;;;;;;;4.05;1.80;;;18.30;99.90;;;;;;4907166;29;20512;-64
2022/10/27 11:18:15;;;;;;;7.60;2.00;;;18.30;99.90;;;;;;4907670;29;20060;-63
2022/10/27 11:20:43;;;;;;;4.40;1.73;;;18.40;99.90;;;;;;4907220;29;20055;-63
2022/10/27 11:23:25;;;;;;;5.07;1.98;;;18.40;99.90;;;;;;4907046;29;20496;-64
2022/10/27 11:25:52;;;;;;;6.47;1.73;;;18.50;99.90;;;;;;4906281;29;20044;-63
2022/10/27 11:28:42;;;;;;;3.95;1.73;;;18.70;99.90;;;;;;4906630;29;20173;-64
2022/10/27 11:31:22;;;;;;;1.95;1.17;;;18.80;99.90;;;;;;4906902;29;20055;-64
2022/10/27 11:34:01;;;;;;;4.03;1.48;;;18.90;99.90;;;;;;4907348;29;20048;-63
2022/10/27 11:36:38;;;;;;;5.88;1.55;;;18.90;99.90;;;;;;4906135;29;20083;-64
2022/10/27 11:39:09;;;;;;;3.50;1.50;;;19.00;99.90;;;;;;4907184;29;20091;-64
2022/10/27 11:42:08;;;;;;;5.53;1.60;;;19.00;99.90;;;;;;4906713;29;20047;-64
2022/10/27 11:45:10;;;;;;;4.90;1.80;;;19.10;99.90;;;;;;4907365;29;20183;-64
2022/10/27 11:47:42;;;;;;;4.25;1.90;;;19.10;99.90;;;;;;4906622;29;20052;-64
2022/10/27 11:50:17;;;;;;;4.13;1.63;;;19.10;99.90;;;;;;4905724;29;20063;-65
2022/10/27 11:52:51;;;;;;;3.40;1.60;;;19.10;99.90;;;;;;4905330;29;20044;-63
2022/10/27 11:55:21;;;;;;;4.47;1.60;;;18.90;99.90;;;;;;4906090;29;20393;-64
2022/10/27 11:58:01;;;;;;;5.38;1.65;;;18.80;99.90;;;;;;4904712;29;20055;-64
2022/10/27 12:00:28;;;;;;;3.85;1.48;;;18.80;99.90;;;;;;4906423;29;20056;-64
2022/10/27 12:03:32;;;;;;;3.83;1.75;;;18.70;99.90;;;;;;4906621;29;20367;-64
2022/10/27 12:06:17;;;;;;;7.03;1.83;;;18.70;99.90;;;;;;4906181;29;20123;-64
2022/10/27 12:08:54;;;;;;;5.43;1.90;;;18.60;99.90;;;;;;4887591;29;20745;-65
2022/10/27 12:12:04;;;;;;;6.40;2.25;;;18.60;99.90;;;;;;4887566;29;20103;-63
2022/10/27 12:14:59;;;;;;;4.47;1.75;;;18.60;99.90;;;;;;4830569;29;20064;-63
2022/10/27 12:17:52;;;;;;;4.97;1.88;;;18.70;99.90;;;;;;4890691;29;20532;-61
2022/10/27 12:20:32;;;;;;;6.63;2.20;;;18.60;99.90;;;;;;4890800;29;20044;-62
2022/10/27 12:23:04;;;;;;;5.63;1.60;;;18.60;99.90;;;;;;4891581;29;20056;-63
2022/10/27 12:25:37;;;;;;;6.65;1.60;;;18.60;99.90;;;;;;4890862;29;20479;-59
2022/10/27 12:28:08;;;;;;;4.57;1.73;;;18.60;99.90;;;;;;4891300;29;20052;-57
2022/10/27 12:30:37;;;;;;;7.68;1.70;;;18.60;99.90;;;;;;4875060;29;20104;-62
2022/10/27 12:33:13;;;;;;;3.15;1.40;;;18.80;99.90;;;;;;4891083;29;20116;-60
2022/10/27 12:35:48;;;;;;;4.05;1.50;;;18.90;99.90;;;;;;4891461;29;20556;-61
2022/10/27 12:38:24;;;;;;;8.05;1.95;;;18.90;99.90;;;;;;4890606;29;20057;-61
2022/10/27 12:41:02;;;;;;;5.60;1.48;;;19.10;99.90;;;;;;4874266;29;20048;-63
2022/10/27 12:43:31;;;;;;;2.72;1.38;;;19.10;99.90;;;;;;4891490;29;20958;-63
2022/10/27 12:46:21;;;;;;;3.75;1.35;;;19.00;99.90;;;;;;4891568;29;20416;-64
2022/10/27 12:48:52;;;;;;;4.55;2.15;;;19.00;99.90;;;;;;4891091;29;20052;-59